sensor_id;sensor_type;location;lat;lon;timestamp;pressure;altitude;pressure_sealevel;temperature
45701;BMP280;36277;32.852;-116.998;2024-02-21T00:01:51;100490.25;;;24.65
45701;BMP280;36277;32.852;-116.998;2024-02-21T00:04:17;100488.16;;;24.67
45701;BMP280;36277;32.852;-116.998;2024-02-21T00:06:43;100493.69;;;24.67
45701;BMP280;36277;32.852;-116.998;2024-02-21T00:09:09;100499.88;;;24.69
45701;BMP280;36277;32.852;-116.998;2024-02-21T00:11:35;100493.47;;;24.68
45701;BMP280;36277;32.852;-116.998;2024-02-21T00:14:02;100487.78;;;24.70
45701;BMP280;36277;32.852;-116.998;2024-02-21T00:16:28;100484.81;;;24.71
45701;BMP280;36277;32.852;-116.998;2024-02-21T00:18:54;100473.78;;;24.71
45701;BMP280;36277;32.852;-116.998;2024-02-21T00:21:20;100474.66;;;24.72
45701;BMP280;36277;32.852;-116.998;2024-02-21T00:23:47;100476.34;;;24.73
45701;BMP280;36277;32.852;-116.998;2024-02-21T00:26:14;100467.00;;;24.74
45701;BMP280;36277;32.852;-116.998;2024-02-21T00:28:40;100467.50;;;24.77
45701;BMP280;36277;32.852;-116.998;2024-02-21T00:31:07;100468.72;;;24.75
45701;BMP280;36277;32.852;-116.998;2024-02-21T00:33:33;100456.47;;;24.77
45701;BMP280;36277;32.852;-116.998;2024-02-21T00:35:59;100460.75;;;24.80
45701;BMP280;36277;32.852;-116.998;2024-02-21T00:38:25;100451.41;;;24.81
45701;BMP280;36277;32.852;-116.998;2024-02-21T00:40:51;100450.19;;;24.83
45701;BMP280;36277;32.852;-116.998;2024-02-21T00:43:17;100440.88;;;24.84
45701;BMP280;36277;32.852;-116.998;2024-02-21T00:45:44;100439.63;;;24.87
45701;BMP280;36277;32.852;-116.998;2024-02-21T00:48:10;100442.16;;;24.88
45701;BMP280;36277;32.852;-116.998;2024-02-21T00:50:36;100451.13;;;24.90
45701;BMP280;36277;32.852;-116.998;2024-02-21T00:53:04;100444.38;;;24.93
45701;BMP280;36277;32.852;-116.998;2024-02-21T00:55:30;100438.47;;;24.96
45701;BMP280;36277;32.852;-116.998;2024-02-21T00:57:56;100442.28;;;24.95
45701;BMP280;36277;32.852;-116.998;2024-02-21T01:00:22;100429.16;;;24.97
45701;BMP280;36277;32.852;-116.998;2024-02-21T01:02:49;100430.19;;;24.96
45701;BMP280;36277;32.852;-116.998;2024-02-21T01:05:15;100432.53;;;24.99
45701;BMP280;36277;32.852;-116.998;2024-02-21T01:07:42;100431.50;;;25.00
45701;BMP280;36277;32.852;-116.998;2024-02-21T01:10:09;100426.16;;;24.98
45701;BMP280;36277;32.852;-116.998;2024-02-21T01:12:35;100424.75;;;24.88
45701;BMP280;36277;32.852;-116.998;2024-02-21T01:15:01;100434.25;;;24.85
45701;BMP280;36277;32.852;-116.998;2024-02-21T01:17:27;100430.94;;;24.90
45701;BMP280;36277;32.852;-116.998;2024-02-21T01:19:53;100431.31;;;24.87
45701;BMP280;36277;32.852;-116.998;2024-02-21T01:22:20;100424.84;;;24.94
45701;BMP280;36277;32.852;-116.998;2024-02-21T01:24:46;100422.94;;;24.95
45701;BMP280;36277;32.852;-116.998;2024-02-21T01:27:12;100423.22;;;25.00
45701;BMP280;36277;32.852;-116.998;2024-02-21T01:29:38;100416.84;;;24.99
45701;BMP280;36277;32.852;-116.998;2024-02-21T01:32:05;100417.31;;;25.03
45701;BMP280;36277;32.852;-116.998;2024-02-21T01:34:31;100418.19;;;25.03
45701;BMP280;36277;32.852;-116.998;2024-02-21T01:36:57;100406.25;;;25.03
45701;BMP280;36277;32.852;-116.998;2024-02-21T01:39:25;100403.22;;;24.98
45701;BMP280;36277;32.852;-116.998;2024-02-21T01:41:51;100404.53;;;25.02
45701;BMP280;36277;32.852;-116.998;2024-02-21T01:44:17;100399.59;;;24.97
45701;BMP280;36277;32.852;-116.998;2024-02-21T01:46:43;100404.94;;;24.99
45701;BMP280;36277;32.852;-116.998;2024-02-21T01:49:10;100408.09;;;24.96
45701;BMP280;36277;32.852;-116.998;2024-02-21T01:51:37;100411.78;;;25.03
45701;BMP280;36277;32.852;-116.998;2024-02-21T01:54:03;100410.06;;;25.02
45701;BMP280;36277;32.852;-116.998;2024-02-21T01:56:30;100413.22;;;24.99
45701;BMP280;36277;32.852;-116.998;2024-02-21T01:58:56;100415.97;;;24.99
45701;BMP280;36277;32.852;-116.998;2024-02-21T02:01:22;100426.38;;;24.97
45701;BMP280;36277;32.852;-116.998;2024-02-21T02:03:49;100422.75;;;24.96
45701;BMP280;36277;32.852;-116.998;2024-02-21T02:06:15;100422.75;;;24.96
45701;BMP280;36277;32.852;-116.998;2024-02-21T02:08:42;100420.66;;;24.98
45701;BMP280;36277;32.852;-116.998;2024-02-21T02:11:09;100415.34;;;24.97
45701;BMP280;36277;32.852;-116.998;2024-02-21T02:13:35;100412.56;;;24.97
45701;BMP280;36277;32.852;-116.998;2024-02-21T02:16:01;100416.75;;;24.93
45701;BMP280;36277;32.852;-116.998;2024-02-21T02:18:28;100417.81;;;24.92
45701;BMP280;36277;32.852;-116.998;2024-02-21T02:20:54;100412.09;;;24.93
45701;BMP280;36277;32.852;-116.998;2024-02-21T02:23:24;100410.38;;;24.92
45701;BMP280;36277;32.852;-116.998;2024-02-21T02:25:51;100415.81;;;24.86
45701;BMP280;36277;32.852;-116.998;2024-02-21T02:28:20;100413.50;;;24.89
45701;BMP280;36277;32.852;-116.998;2024-02-21T02:30:47;100419.41;;;24.86
45701;BMP280;36277;32.852;-116.998;2024-02-21T02:33:14;100414.09;;;24.85
45701;BMP280;36277;32.852;-116.998;2024-02-21T02:35:40;100413.06;;;24.86
45701;BMP280;36277;32.852;-116.998;2024-02-21T02:38:07;100415.72;;;24.79
45701;BMP280;36277;32.852;-116.998;2024-02-21T02:40:34;100434.25;;;24.85
45701;BMP280;36277;32.852;-116.998;2024-02-21T02:43:01;100419.03;;;24.75
45701;BMP280;36277;32.852;-116.998;2024-02-21T02:45:27;100416.56;;;24.80
45701;BMP280;36277;32.852;-116.998;2024-02-21T02:47:54;100420.28;;;24.87
45701;BMP280;36277;32.852;-116.998;2024-02-21T02:50:23;100415.16;;;24.84
45701;BMP280;36277;32.852;-116.998;2024-02-21T02:52:49;100420.47;;;24.85
45701;BMP280;36277;32.852;-116.998;2024-02-21T02:55:16;100423.03;;;24.87
45701;BMP280;36277;32.852;-116.998;2024-02-21T02:57:42;100420.47;;;24.85
45701;BMP280;36277;32.852;-116.998;2024-02-21T03:00:10;100424.09;;;24.86
45701;BMP280;36277;32.852;-116.998;2024-02-21T03:02:39;100419.91;;;24.90
45701;BMP280;36277;32.852;-116.998;2024-02-21T03:05:19;100418.19;;;24.89
45701;BMP280;36277;32.852;-116.998;2024-02-21T03:07:46;100423.72;;;24.89
45701;BMP280;36277;32.852;-116.998;2024-02-21T03:10:13;100424.75;;;24.88
45701;BMP280;36277;32.852;-116.998;2024-02-21T03:12:42;100428.94;;;24.84
45701;BMP280;36277;32.852;-116.998;2024-02-21T03:15:09;100428.09;;;24.83
45701;BMP280;36277;32.852;-116.998;2024-02-21T03:17:35;100428.28;;;24.82
45701;BMP280;36277;32.852;-116.998;2024-02-21T03:20:03;100421.91;;;24.81
45701;BMP280;36277;32.852;-116.998;2024-02-21T03:22:36;100422.47;;;24.77
45701;BMP280;36277;32.852;-116.998;2024-02-21T03:25:06;100425.72;;;24.80
45701;BMP280;36277;32.852;-116.998;2024-02-21T03:27:32;100421.81;;;24.75
45701;BMP280;36277;32.852;-116.998;2024-02-21T03:29:58;100429.03;;;24.76
45701;BMP280;36277;32.852;-116.998;2024-02-21T03:32:27;100436.38;;;24.69
45701;BMP280;36277;32.852;-116.998;2024-02-21T03:34:54;100434.56;;;24.76
45701;BMP280;36277;32.852;-116.998;2024-02-21T03:37:20;100432.47;;;24.78
45701;BMP280;36277;32.852;-116.998;2024-02-21T03:39:47;100424.69;;;24.81
45701;BMP280;36277;32.852;-116.998;2024-02-21T03:42:13;100436.56;;;24.82
45701;BMP280;36277;32.852;-116.998;2024-02-21T03:44:39;100443.81;;;24.83
45701;BMP280;36277;32.852;-116.998;2024-02-21T03:47:05;100438.47;;;24.81
45701;BMP280;36277;32.852;-116.998;2024-02-21T03:49:32;100438.28;;;24.83
45701;BMP280;36277;32.852;-116.998;2024-02-21T03:51:58;100430.19;;;24.81
45701;BMP280;36277;32.852;-116.998;2024-02-21T03:54:24;100426.19;;;24.84
45701;BMP280;36277;32.852;-116.998;2024-02-21T03:56:50;100433.41;;;24.85
45701;BMP280;36277;32.852;-116.998;2024-02-21T03:59:17;100433.88;;;24.88
45701;BMP280;36277;32.852;-116.998;2024-02-21T04:01:43;100434.09;;;24.87
45701;BMP280;36277;32.852;-116.998;2024-02-21T04:04:10;100436.25;;;24.91
45701;BMP280;36277;32.852;-116.998;2024-02-21T04:06:36;100432.00;;;24.89
45701;BMP280;36277;32.852;-116.998;2024-02-21T04:09:03;100433.72;;;24.90
45701;BMP280;36277;32.852;-116.998;2024-02-21T04:11:29;100433.50;;;24.91
45701;BMP280;36277;32.852;-116.998;2024-02-21T04:13:55;100435.03;;;24.94
45701;BMP280;36277;32.852;-116.998;2024-02-21T04:16:21;100429.69;;;24.92
45701;BMP280;36277;32.852;-116.998;2024-02-21T04:18:47;100422.66;;;24.90
45701;BMP280;36277;32.852;-116.998;2024-02-21T04:21:17;100424.47;;;24.97
45701;BMP280;36277;32.852;-116.998;2024-02-21T04:23:43;100424.38;;;24.91
45701;BMP280;36277;32.852;-116.998;2024-02-21T04:26:09;100421.41;;;24.92
45701;BMP280;36277;32.852;-116.998;2024-02-21T04:28:35;100416.84;;;24.99
45701;BMP280;36277;32.852;-116.998;2024-02-21T04:31:02;100422.53;;;24.98
45701;BMP280;36277;32.852;-116.998;2024-02-21T04:33:28;100416.19;;;24.97
45701;BMP280;36277;32.852;-116.998;2024-02-21T04:35:54;100419.41;;;25.01
45701;BMP280;36277;32.852;-116.998;2024-02-21T04:38:21;100417.22;;;24.96
45701;BMP280;36277;32.852;-116.998;2024-02-21T04:40:47;100412.81;;;25.02
45701;BMP280;36277;32.852;-116.998;2024-02-21T04:43:13;100414.19;;;24.91
45701;BMP280;36277;32.852;-116.998;2024-02-21T04:45:39;100415.97;;;24.99
45701;BMP280;36277;32.852;-116.998;2024-02-21T04:48:06;100421.50;;;24.99
45701;BMP280;36277;32.852;-116.998;2024-02-21T04:50:32;100422.81;;;25.03
45701;BMP280;36277;32.852;-116.998;2024-02-21T04:52:59;100419.41;;;25.01
45701;BMP280;36277;32.852;-116.998;2024-02-21T04:55:25;100411.50;;;24.98
45701;BMP280;36277;32.852;-116.998;2024-02-21T04:57:51;100406.63;;;25.00
45701;BMP280;36277;32.852;-116.998;2024-02-21T05:00:17;100393.88;;;24.99
45701;BMP280;36277;32.852;-116.998;2024-02-21T05:02:44;100391.78;;;25.01
45701;BMP280;36277;32.852;-116.998;2024-02-21T05:05:10;100390.06;;;25.00
45701;BMP280;36277;32.852;-116.998;2024-02-21T05:07:36;100390.06;;;25.00
45701;BMP280;36277;32.852;-116.998;2024-02-21T05:10:02;100398.56;;;24.98
45701;BMP280;36277;32.852;-116.998;2024-02-21T05:12:29;100404.09;;;24.98
45701;BMP280;36277;32.852;-116.998;2024-02-21T05:14:55;100391.69;;;24.94
45701;BMP280;36277;32.852;-116.998;2024-02-21T05:17:22;100390.88;;;24.94
45701;BMP280;36277;32.852;-116.998;2024-02-21T05:19:48;100388.28;;;24.92
45701;BMP280;36277;32.852;-116.998;2024-02-21T05:22:14;100391.25;;;24.91
45701;BMP280;36277;32.852;-116.998;2024-02-21T05:24:40;100396.94;;;24.89
45701;BMP280;36277;32.852;-116.998;2024-02-21T05:27:06;100394.38;;;24.88
45701;BMP280;36277;32.852;-116.998;2024-02-21T05:29:33;100400.09;;;24.86
45701;BMP280;36277;32.852;-116.998;2024-02-21T05:31:59;100406.84;;;24.84
45701;BMP280;36277;32.852;-116.998;2024-02-21T05:34:26;100408.28;;;24.80
45701;BMP280;36277;32.852;-116.998;2024-02-21T05:36:52;100397.25;;;24.80
45701;BMP280;36277;32.852;-116.998;2024-02-21T05:39:19;100385.53;;;24.78
45701;BMP280;36277;32.852;-116.998;2024-02-21T05:41:45;100392.09;;;24.77
45701;BMP280;36277;32.852;-116.998;2024-02-21T05:44:12;100395.06;;;24.75
45701;BMP280;36277;32.852;-116.998;2024-02-21T05:46:38;100404.19;;;24.76
45701;BMP280;36277;32.852;-116.998;2024-02-21T05:49:04;100400.75;;;24.74
45701;BMP280;36277;32.852;-116.998;2024-02-21T05:51:33;100394.19;;;24.75
45701;BMP280;36277;32.852;-116.998;2024-02-21T05:53:59;100393.34;;;24.74
45701;BMP280;36277;32.852;-116.998;2024-02-21T05:56:26;100390.78;;;24.73
45701;BMP280;36277;32.852;-116.998;2024-02-21T05:58:52;100390.13;;;24.71
45701;BMP280;36277;32.852;-116.998;2024-02-21T06:01:18;100392.47;;;24.74
45701;BMP280;36277;32.852;-116.998;2024-02-21T06:03:45;100395.44;;;24.72
45701;BMP280;36277;32.852;-116.998;2024-02-21T06:06:11;100399.06;;;24.73
45701;BMP280;36277;32.852;-116.998;2024-02-21T06:08:39;100395.25;;;24.74
45701;BMP280;36277;32.852;-116.998;2024-02-21T06:11:06;100390.97;;;24.71
45701;BMP280;36277;32.852;-116.998;2024-02-21T06:13:32;100383.94;;;24.69
45701;BMP280;36277;32.852;-116.998;2024-02-21T06:15:58;100385.84;;;24.68
45701;BMP280;36277;32.852;-116.998;2024-02-21T06:18:24;100387.53;;;24.69
45701;BMP280;36277;32.852;-116.998;2024-02-21T06:20:51;100381.19;;;24.69
45701;BMP280;36277;32.852;-116.998;2024-02-21T06:23:17;100379.09;;;24.71
45701;BMP280;36277;32.852;-116.998;2024-02-21T06:25:44;100374.78;;;24.68
45701;BMP280;36277;32.852;-116.998;2024-02-21T06:28:10;100377.38;;;24.70
45701;BMP280;36277;32.852;-116.998;2024-02-21T06:30:36;100380.13;;;24.70
45701;BMP280;36277;32.852;-116.998;2024-02-21T06:33:02;100380.13;;;24.70
45701;BMP280;36277;32.852;-116.998;2024-02-21T06:35:29;100392.91;;;24.71
45701;BMP280;36277;32.852;-116.998;2024-02-21T06:37:55;100399.47;;;24.70
45701;BMP280;36277;32.852;-116.998;2024-02-21T06:40:22;100392.91;;;24.71
45701;BMP280;36277;32.852;-116.998;2024-02-21T06:42:49;100392.22;;;24.69
45701;BMP280;36277;32.852;-116.998;2024-02-21T06:45:16;100404.97;;;24.70
45701;BMP280;36277;32.852;-116.998;2024-02-21T06:47:43;100403.06;;;24.70
45701;BMP280;36277;32.852;-116.998;2024-02-21T06:50:10;100408.59;;;24.70
45701;BMP280;36277;32.852;-116.998;2024-02-21T06:52:36;100404.97;;;24.70
45701;BMP280;36277;32.852;-116.998;2024-02-21T06:55:03;100407.06;;;24.68
45701;BMP280;36277;32.852;-116.998;2024-02-21T06:57:29;100405.34;;;24.67
45701;BMP280;36277;32.852;-116.998;2024-02-21T06:59:56;100414.69;;;24.66
45701;BMP280;36277;32.852;-116.998;2024-02-21T07:02:22;100410.00;;;24.66
45701;BMP280;36277;32.852;-116.998;2024-02-21T07:04:48;100412.59;;;24.68
45701;BMP280;36277;32.852;-116.998;2024-02-21T07:07:15;100407.25;;;24.66
45701;BMP280;36277;32.852;-116.998;2024-02-21T07:09:41;100409.16;;;24.66
45701;BMP280;36277;32.852;-116.998;2024-02-21T07:12:07;100410.38;;;24.63
45701;BMP280;36277;32.852;-116.998;2024-02-21T07:14:35;100410.22;;;24.65
45701;BMP280;36277;32.852;-116.998;2024-02-21T07:17:01;100406.56;;;24.64
45701;BMP280;36277;32.852;-116.998;2024-02-21T07:19:27;100413.16;;;24.63
45701;BMP280;36277;32.852;-116.998;2024-02-21T07:21:54;100417.81;;;24.63
45701;BMP280;36277;32.852;-116.998;2024-02-21T07:24:20;100422.31;;;24.64
45701;BMP280;36277;32.852;-116.998;2024-02-21T07:26:46;100418.00;;;24.61
45701;BMP280;36277;32.852;-116.998;2024-02-21T07:29:12;100414.19;;;24.62
45701;BMP280;36277;32.852;-116.998;2024-02-21T07:31:43;100414.84;;;24.64
45701;BMP280;36277;32.852;-116.998;2024-02-21T07:34:10;100413.34;;;24.62
45701;BMP280;36277;32.852;-116.998;2024-02-21T07:36:37;100406.13;;;24.61
45701;BMP280;36277;32.852;-116.998;2024-02-21T07:39:04;100398.88;;;24.60
45701;BMP280;36277;32.852;-116.998;2024-02-21T07:41:31;100393.16;;;24.61
45701;BMP280;36277;32.852;-116.998;2024-02-21T07:43:57;100384.03;;;24.61
45701;BMP280;36277;32.852;-116.998;2024-02-21T07:46:24;100385.28;;;24.58
45701;BMP280;36277;32.852;-116.998;2024-02-21T07:48:50;100382.31;;;24.60
45701;BMP280;36277;32.852;-116.998;2024-02-21T07:51:17;100383.38;;;24.59
45701;BMP280;36277;32.852;-116.998;2024-02-21T07:53:44;100388.03;;;24.58
45701;BMP280;36277;32.852;-116.998;2024-02-21T07:56:15;100378.53;;;24.61
45701;BMP280;36277;32.852;-116.998;2024-02-21T07:58:42;100368.91;;;24.57
45701;BMP280;36277;32.852;-116.998;2024-02-21T08:01:08;100364.44;;;24.56
45701;BMP280;36277;32.852;-116.998;2024-02-21T08:03:35;100367.19;;;24.56
45701;BMP280;36277;32.852;-116.998;2024-02-21T08:06:02;100368.22;;;24.55
45701;BMP280;36277;32.852;-116.998;2024-02-21T08:08:29;100360.81;;;24.55
45701;BMP280;36277;32.852;-116.998;2024-02-21T08:10:55;100352.94;;;24.52
45701;BMP280;36277;32.852;-116.998;2024-02-21T08:13:22;100363.09;;;24.52
45701;BMP280;36277;32.852;-116.998;2024-02-21T08:15:48;100361.38;;;24.51
45701;BMP280;36277;32.852;-116.998;2024-02-21T08:18:14;100357.78;;;24.50
45701;BMP280;36277;32.852;-116.998;2024-02-21T08:20:40;100360.53;;;24.50
45701;BMP280;36277;32.852;-116.998;2024-02-21T08:23:06;100362.44;;;24.50
45701;BMP280;36277;32.852;-116.998;2024-02-21T08:25:33;100364.34;;;24.49
45701;BMP280;36277;32.852;-116.998;2024-02-21T08:28:00;100360.53;;;24.50
45701;BMP280;36277;32.852;-116.998;2024-02-21T08:30:26;100357.09;;;24.48
45701;BMP280;36277;32.852;-116.998;2024-02-21T08:32:52;100368.16;;;24.48
45701;BMP280;36277;32.852;-116.998;2024-02-21T08:35:21;100365.72;;;24.45
45701;BMP280;36277;32.852;-116.998;2024-02-21T08:37:50;100363.84;;;24.46
45701;BMP280;36277;32.852;-116.998;2024-02-21T08:40:16;100356.25;;;24.48
45701;BMP280;36277;32.852;-116.998;2024-02-21T08:42:47;100363.84;;;24.46
45701;BMP280;36277;32.852;-116.998;2024-02-21T08:45:15;100354.91;;;24.44
45701;BMP280;36277;32.852;-116.998;2024-02-21T08:47:41;100355.75;;;24.44
45701;BMP280;36277;32.852;-116.998;2024-02-21T08:50:08;100359.38;;;24.45
45701;BMP280;36277;32.852;-116.998;2024-02-21T08:52:37;100366.97;;;24.43
45701;BMP280;36277;32.852;-116.998;2024-02-21T08:55:04;100359.75;;;24.42
45701;BMP280;36277;32.852;-116.998;2024-02-21T08:57:30;100341.28;;;24.42
45701;BMP280;36277;32.852;-116.998;2024-02-21T09:00:05;100314.34;;;24.44
45701;BMP280;36277;32.852;-116.998;2024-02-21T09:02:40;100303.53;;;24.43
45701;BMP280;36277;32.852;-116.998;2024-02-21T09:05:08;100317.03;;;24.38
45701;BMP280;36277;32.852;-116.998;2024-02-21T09:07:35;100310.47;;;24.39
45701;BMP280;36277;32.852;-116.998;2024-02-21T09:10:01;100317.88;;;24.38
45701;BMP280;36277;32.852;-116.998;2024-02-21T09:12:27;100319.97;;;24.36
45701;BMP280;36277;32.852;-116.998;2024-02-21T09:14:53;100323.59;;;24.37
45701;BMP280;36277;32.852;-116.998;2024-02-21T09:17:20;100327.56;;;24.34
45701;BMP280;36277;32.852;-116.998;2024-02-21T09:19:50;100326.72;;;24.34
45701;BMP280;36277;32.852;-116.998;2024-02-21T09:22:17;100326.72;;;24.34
45701;BMP280;36277;32.852;-116.998;2024-02-21T09:24:43;100308.47;;;24.33
45701;BMP280;36277;32.852;-116.998;2024-02-21T09:27:10;100293.63;;;24.34
45701;BMP280;36277;32.852;-116.998;2024-02-21T09:29:37;100295.72;;;24.32
45701;BMP280;36277;32.852;-116.998;2024-02-21T09:32:05;100302.09;;;24.32
45701;BMP280;36277;32.852;-116.998;2024-02-21T09:34:31;100285.72;;;24.31
45701;BMP280;36277;32.852;-116.998;2024-02-21T09:36:57;100281.94;;;24.32
45701;BMP280;36277;32.852;-116.998;2024-02-21T09:39:24;100277.47;;;24.31
45701;BMP280;36277;32.852;-116.998;2024-02-21T09:41:53;100285.56;;;24.32
45701;BMP280;36277;32.852;-116.998;2024-02-21T09:44:22;100296.97;;;24.29
45701;BMP280;36277;32.852;-116.998;2024-02-21T09:46:57;100295.72;;;24.32
45701;BMP280;36277;32.852;-116.998;2024-02-21T09:49:32;100304.19;;;24.30
45701;BMP280;36277;32.852;-116.998;2024-02-21T09:52:04;100307.13;;;24.29
45701;BMP280;36277;32.852;-116.998;2024-02-21T09:54:33;100302.00;;;24.26
45701;BMP280;36277;32.852;-116.998;2024-02-21T09:57:00;100301.16;;;24.25
45701;BMP280;36277;32.852;-116.998;2024-02-21T09:59:32;100302.00;;;24.26
45701;BMP280;36277;32.852;-116.998;2024-02-21T10:01:59;100316.00;;;24.24
45701;BMP280;36277;32.852;-116.998;2024-02-21T10:04:26;100313.22;;;24.24
45701;BMP280;36277;32.852;-116.998;2024-02-21T10:06:54;100312.78;;;24.21
45701;BMP280;36277;32.852;-116.998;2024-02-21T10:09:28;100314.28;;;24.23
45701;BMP280;36277;32.852;-116.998;2024-02-21T10:11:55;100303.81;;;24.19
45701;BMP280;36277;32.852;-116.998;2024-02-21T10:14:22;100294.69;;;24.18
45701;BMP280;36277;32.852;-116.998;2024-02-21T10:16:57;100303.63;;;24.20
45701;BMP280;36277;32.852;-116.998;2024-02-21T10:19:24;100295.94;;;24.16
45701;BMP280;36277;32.852;-116.998;2024-02-21T10:22:05;100296.41;;;24.19
45701;BMP280;36277;32.852;-116.998;2024-02-21T10:24:35;100304.56;;;24.13
45701;BMP280;36277;32.852;-116.998;2024-02-21T10:27:05;100288.03;;;24.13
45701;BMP280;36277;32.852;-116.998;2024-02-21T10:29:34;100286.13;;;24.13
45701;BMP280;36277;32.852;-116.998;2024-02-21T10:34:34;100277.16;;;24.12
45701;BMP280;36277;32.852;-116.998;2024-02-21T10:37:03;100279.75;;;24.13
45701;BMP280;36277;32.852;-116.998;2024-02-21T10:39:33;100282.50;;;24.13
45701;BMP280;36277;32.852;-116.998;2024-02-21T10:42:01;100280.81;;;24.12
45701;BMP280;36277;32.852;-116.998;2024-02-21T10:44:37;100280.81;;;24.12
45701;BMP280;36277;32.852;-116.998;2024-02-21T10:47:08;100277.38;;;24.10
45701;BMP280;36277;32.852;-116.998;2024-02-21T10:49:39;100274.63;;;24.10
45701;BMP280;36277;32.852;-116.998;2024-02-21T10:52:22;100270.34;;;24.08
45701;BMP280;36277;32.852;-116.998;2024-02-21T10:55:05;100268.63;;;24.07
45701;BMP280;36277;32.852;-116.998;2024-02-21T10:57:37;100269.84;;;24.04
45701;BMP280;36277;32.852;-116.998;2024-02-21T11:00:05;100266.94;;;24.06
45701;BMP280;36277;32.852;-116.998;2024-02-21T11:02:34;100262.47;;;24.05
45701;BMP280;36277;32.852;-116.998;2024-02-21T11:05:03;100267.78;;;24.06
45701;BMP280;36277;32.852;-116.998;2024-02-21T11:07:31;100267.78;;;24.06
45701;BMP280;36277;32.852;-116.998;2024-02-21T11:09:58;100261.41;;;24.06
45701;BMP280;36277;32.852;-116.998;2024-02-21T11:12:25;100259.50;;;24.06
45701;BMP280;36277;32.852;-116.998;2024-02-21T11:15:03;100252.09;;;24.07
45701;BMP280;36277;32.852;-116.998;2024-02-21T11:17:30;100242.28;;;24.04
45701;BMP280;36277;32.852;-116.998;2024-02-21T11:19:56;100236.78;;;24.04
45701;BMP280;36277;32.852;-116.998;2024-02-21T11:22:22;100234.69;;;24.06
45701;BMP280;36277;32.852;-116.998;2024-02-21T11:24:50;100237.44;;;24.06
45701;BMP280;36277;32.852;-116.998;2024-02-21T11:27:20;100246.59;;;24.07
45701;BMP280;36277;32.852;-116.998;2024-02-21T11:29:54;100244.88;;;24.06
45701;BMP280;36277;32.852;-116.998;2024-02-21T11:32:21;100258.81;;;24.04
45701;BMP280;36277;32.852;-116.998;2024-02-21T11:34:57;100279.66;;;24.07
45701;BMP280;36277;32.852;-116.998;2024-02-21T11:37:33;100287.81;;;24.00
45701;BMP280;36277;32.852;-116.998;2024-02-21T11:40:00;100273.00;;;24.01
45701;BMP280;36277;32.852;-116.998;2024-02-21T11:42:29;100272.31;;;23.99
45701;BMP280;36277;32.852;-116.998;2024-02-21T11:44:57;100266.81;;;23.99
45701;BMP280;36277;32.852;-116.998;2024-02-21T11:47:23;100258.75;;;23.98
45701;BMP280;36277;32.852;-116.998;2024-02-21T11:49:50;100240.50;;;23.97
45701;BMP280;36277;32.852;-116.998;2024-02-21T11:52:21;100234.31;;;23.95
45701;BMP280;36277;32.852;-116.998;2024-02-21T11:54:51;100265.50;;;23.95
45701;BMP280;36277;32.852;-116.998;2024-02-21T11:57:23;100266.72;;;23.93
45701;BMP280;36277;32.852;-116.998;2024-02-21T11:59:51;100258.28;;;23.94
45701;BMP280;36277;32.852;-116.998;2024-02-21T12:02:20;100252.47;;;23.89
45701;BMP280;36277;32.852;-116.998;2024-02-21T12:04:46;100253.31;;;23.90
45701;BMP280;36277;32.852;-116.998;2024-02-21T12:07:14;100266.25;;;23.89
45701;BMP280;36277;32.852;-116.998;2024-02-21T12:09:42;100270.91;;;23.89
45701;BMP280;36277;32.852;-116.998;2024-02-21T12:12:08;100298.47;;;23.89
45701;BMP280;36277;32.852;-116.998;2024-02-21T12:14:35;100286.59;;;23.88
45701;BMP280;36277;32.852;-116.998;2024-02-21T12:17:02;100286.59;;;23.88
45701;BMP280;36277;32.852;-116.998;2024-02-21T12:19:32;100258.34;;;23.86
45701;BMP280;36277;32.852;-116.998;2024-02-21T12:21:59;100268.34;;;23.87
45701;BMP280;36277;32.852;-116.998;2024-02-21T12:24:27;100265.59;;;23.87
45701;BMP280;36277;32.852;-116.998;2024-02-21T12:26:54;100261.97;;;23.87
45701;BMP280;36277;32.852;-116.998;2024-02-21T12:29:22;100264.91;;;23.85
45701;BMP280;36277;32.852;-116.998;2024-02-21T12:31:51;100296.28;;;23.84
45701;BMP280;36277;32.852;-116.998;2024-02-21T12:34:17;100306.63;;;23.82
45701;BMP280;36277;32.852;-116.998;2024-02-21T12:36:45;100298.00;;;23.85
45701;BMP280;36277;32.852;-116.998;2024-02-21T12:39:14;100288.22;;;23.83
45701;BMP280;36277;32.852;-116.998;2024-02-21T12:41:42;100300.91;;;23.84
45701;BMP280;36277;32.852;-116.998;2024-02-21T12:44:10;100317.47;;;23.84
45701;BMP280;36277;32.852;-116.998;2024-02-21T12:46:37;100309.38;;;23.82
45701;BMP280;36277;32.852;-116.998;2024-02-21T12:49:05;100297.69;;;23.80
45701;BMP280;36277;32.852;-116.998;2024-02-21T12:51:34;100292.84;;;23.82
45701;BMP280;36277;32.852;-116.998;2024-02-21T12:54:01;100302.16;;;23.81
45701;BMP280;36277;32.852;-116.998;2024-02-21T12:56:28;100294.94;;;23.80
45701;BMP280;36277;32.852;-116.998;2024-02-21T12:58:57;100300.44;;;23.80
45701;BMP280;36277;32.852;-116.998;2024-02-21T13:01:23;100298.72;;;23.79
45701;BMP280;36277;32.852;-116.998;2024-02-21T13:03:49;100307.88;;;23.80
45701;BMP280;36277;32.852;-116.998;2024-02-21T13:06:15;100305.28;;;23.78
45701;BMP280;36277;32.852;-116.998;2024-02-21T13:08:42;100317.19;;;23.79
45701;BMP280;36277;32.852;-116.998;2024-02-21T13:11:09;100314.56;;;23.77
45701;BMP280;36277;32.852;-116.998;2024-02-21T13:13:36;100313.72;;;23.77
45701;BMP280;36277;32.852;-116.998;2024-02-21T13:16:03;100319.41;;;23.75
45701;BMP280;36277;32.852;-116.998;2024-02-21T13:18:29;100323.88;;;23.76
45701;BMP280;36277;32.852;-116.998;2024-02-21T13:20:55;100335.94;;;23.75
45701;BMP280;36277;32.852;-116.998;2024-02-21T13:23:22;100343.53;;;23.73
45701;BMP280;36277;32.852;-116.998;2024-02-21T13:25:48;100345.25;;;23.74